Impacts METAR Board
IDs:

KPDX - Portland Intl Arpt, OR, US

Updated at: 1000 UTC 22 Apr 2018
Potential Impact None Slight Moderate High
Time 21/22Z 21/23Z 22/00Z 22/01Z 22/02Z 22/03Z 22/04Z 22/05Z 22/06Z 22/07Z 22/08Z 22/09Z 22/10Z
Temp61 62 63 61 59 56 53 51 49 48 47 46 45
Dewpt32 33 32 35 33 37 38 38 38 38 38 39 38
Altim30.40 30.38 30.37 30.37 30.37 30.37 30.38 30.39 30.39 30.38 30.38 30.38 30.38
VIS10 10 10 10 10 10 10 10 10 10 10 10 10
CIG-- -- -- -- -- -- -- -- -- -- -- -- --
CoverSCTSCTFEWFEWFEWFEWFEWCLRCLRCLRCLRCLRCLR
FltCatVFRVFRVFRVFRVFRVFRVFRVFRVFRVFRVFRVFRVFR
WX--------------------------
WDir300310300360360340340340320320310320320
WSpd8 9 9 6 8 7 8 6 9 10 8 10 5
WGst-- -- -- -- -- -- -- -- -- -- -- -- --
Raw hourly METARs
KPDX 212153Z 30008KT 10SM FEW060 SCT190 16/00 A3040 RMK AO2 SLP293 CCSL E-S-W T01610000
KPDX 212253Z 31009KT 10SM FEW060 SCT180 17/01 A3038 RMK AO2 SLP287 CCSL E-S-SE T01670006
KPDX 212353Z 30009KT 10SM FEW070 FEW180 17/00 A3037 RMK AO2 SLP284 CCSL NE-E SW-W T01720000 10172 20122 56015
KPDX 220053Z 36006KT 10SM FEW060 FEW080 FEW180 16/02 A3037 RMK AO2 SLP283 T01610017
KPDX 220153Z 36008KT 10SM FEW060 FEW180 15/01 A3037 RMK AO2 SLP282 T01500006
KPDX 220253Z 34007KT 10SM FEW060 FEW250 13/03 A3037 RMK AO2 SLP284 T01330028 55001
KPDX 220353Z 34008KT 10SM FEW060 FEW250 12/03 A3038 RMK AO2 SLP288 T01170033
KPDX 220453Z 34006KT 10SM CLR 11/03 A3039 RMK AO2 SLP292 T01060033
KPDX 220553Z 32009KT 10SM CLR 09/03 A3039 RMK AO2 SLP289 T00940033 10172 20094 50005
KPDX 220653Z 32010KT 10SM CLR 09/03 A3038 RMK AO2 SLP288 T00890033
KPDX 220753Z 31008KT 10SM CLR 08/03 A3038 RMK AO2 SLP287 T00830033 401720083
KPDX 220853Z 32010KT 10SM CLR 08/04 A3038 RMK AO2 SLP286 T00780039 58003
KPDX 220953Z 32005KT 10SM CLR 07/03 A3038 RMK AO2 SLP285 T00720033



Page loaded:  10:48 UTC  |   03:48 AM Pacific  |   04:48 AM Mountain  |   05:48 AM Central  |   06:48 AM Eastern

 

ADVISORIES

FORECASTS

FORECASTS

OBSERVATIONS

USER TOOLS

ABOUT US